Weather at Hanjin SM Co. Ltd Heliport

Public forecast

Using degrees Celsius for public forecast. Weather courtesy of forecast.io.

Closest aviation weather report (METAR) to Hanjin SM Co. Ltd Heliport

Closest report is Gimhae International Airport, 6.5 nm (12.0 km) NW. Retrieved 2020/09/23 23:00 UTC (1 hour ago):

RKPK 232300Z 36009KT 9999 FEW040 SCT070 BKN170 21/14 Q1014

Closest aviation forecast (TAF) to Hanjin SM Co. Ltd Heliport

Forecast is more than 6 hours old.

Closest forecast is Gimhae International Airport, 6.5 nm (12.0 km) NW. Retrieved 2020/09/23 18:00 UTC (6 hours ago):

TAF RKPK 231700Z 2318/2424 36010KT 9999 BKN030 BKN200 TN17/2321Z TX24/2406Z TEMPO 2318/2321 4800 -RA BR BKN030 BKN100